createdAt,value
2023-01-11T03:59:20.102Z,1000.16
2023-01-11T04:00:20.110Z,1000.13
2023-01-11T04:01:19.924Z,1000.19
2023-01-11T04:02:19.935Z,1000.10
2023-01-11T04:03:19.923Z,1000.26
2023-01-11T04:04:19.927Z,1000.21
2023-01-11T04:05:20.116Z,1000.18
2023-01-11T04:06:18.922Z,1000.17
2023-01-11T04:07:18.891Z,1000.18
2023-01-11T04:08:18.871Z,1000.12
2023-01-11T04:09:20.075Z,1000.12
2023-01-11T04:10:18.874Z,1000.18
2023-01-11T04:11:20.093Z,1000.20
2023-01-11T04:12:19.857Z,1000.11
2023-01-11T04:13:19.859Z,1000.02
2023-01-11T04:14:18.846Z,1000.11
2023-01-11T04:15:20.581Z,1000.16
2023-01-11T04:16:19.866Z,1000.16
2023-01-11T04:17:20.614Z,1000.13
2023-01-11T04:18:19.815Z,1000.06
2023-01-11T04:19:20.579Z,1000.06
2023-01-11T04:20:19.815Z,1000.00
2023-01-11T04:21:20.632Z,1000.14
2023-01-11T04:22:19.805Z,1000.19
2023-01-11T04:23:20.627Z,1000.13
2023-01-11T04:24:20.132Z,1000.07
2023-01-11T04:25:20.602Z,1000.08
2023-01-11T04:26:20.598Z,1000.15
2023-01-11T04:27:20.574Z,1000.20
2023-01-11T04:28:19.804Z,1000.10
2023-01-11T04:29:20.600Z,1000.07
2023-01-11T04:30:19.756Z,1000.10
2023-01-11T04:31:20.692Z,999.98
2023-01-11T04:32:20.627Z,1000.02
2023-01-11T04:33:20.600Z,1000.02
2023-01-11T04:34:20.582Z,1000.13
2023-01-11T04:35:20.591Z,1000.12
2023-01-11T04:36:20.626Z,1000.08
2023-01-11T04:37:20.641Z,1000.10
2023-01-11T04:38:20.623Z,1000.11
2023-01-11T04:39:20.104Z,1000.14
2023-01-11T04:40:18.737Z,1000.14
2023-01-11T04:41:18.713Z,1000.11
2023-01-11T04:42:20.117Z,1000.00
2023-01-11T04:43:20.151Z,1000.14
2023-01-11T04:44:20.607Z,1000.13
2023-01-11T04:45:20.599Z,1000.18
2023-01-11T04:46:20.614Z,1000.13
2023-01-11T04:47:20.610Z,1000.08
2023-01-11T04:48:19.695Z,1000.13
2023-01-11T04:49:20.633Z,1000.12
2023-01-11T04:50:20.636Z,1000.17
2023-01-11T04:51:20.109Z,1000.17
2023-01-11T04:52:20.636Z,1000.12
2023-01-11T04:53:20.629Z,1000.07
2023-01-11T04:54:20.650Z,1000.15
2023-01-11T04:55:20.679Z,1000.08
2023-01-11T04:56:20.615Z,1000.08
2023-01-11T04:57:20.620Z,1000.17
2023-01-11T04:58:20.606Z,1000.22
2023-01-11T04:59:20.613Z,1000.12
2023-01-11T05:00:20.652Z,1000.17
2023-01-11T05:01:20.745Z,1000.13
2023-01-11T05:02:20.170Z,1000.18
2023-01-11T05:03:20.120Z,1000.20
2023-01-11T05:04:20.205Z,1000.21
2023-01-11T05:05:20.185Z,1000.20
2023-01-11T05:06:20.113Z,1000.17
2023-01-11T05:07:20.178Z,1000.23
2023-01-11T05:08:20.149Z,1000.18
2023-01-11T05:09:20.152Z,1000.10
2023-01-11T05:10:21.093Z,1000.18
2023-01-11T05:11:19.604Z,1000.06
2023-01-11T05:12:19.645Z,1000.09
2023-01-11T05:13:19.619Z,1000.08
2023-01-11T05:14:19.578Z,1000.06
2023-01-11T05:15:20.139Z,1000.09
2023-01-11T05:16:20.229Z,1000.12
2023-01-11T05:17:20.129Z,1000.06
2023-01-11T05:18:20.155Z,1000.09
2023-01-11T05:19:20.133Z,1000.08
2023-01-11T05:20:20.122Z,1000.10
2023-01-11T05:21:20.135Z,1000.16
2023-01-11T05:22:20.133Z,1000.26
2023-01-11T05:23:20.151Z,1000.20
2023-01-11T05:24:20.150Z,1000.20
2023-01-11T05:25:20.128Z,1000.23
2023-01-11T05:26:20.166Z,1000.28
2023-01-11T05:27:20.130Z,1000.23
2023-01-11T05:28:20.128Z,1000.25
2023-01-11T05:29:20.159Z,1000.30
2023-01-11T05:30:20.147Z,1000.32
2023-01-11T05:31:20.190Z,1000.30
2023-01-11T05:32:20.513Z,1000.34
2023-01-11T05:33:20.141Z,1000.32
2023-01-11T05:34:20.166Z,1000.35
2023-01-11T05:35:20.162Z,1000.31
2023-01-11T05:36:20.153Z,1000.28
2023-01-11T05:37:19.496Z,1000.25
2023-01-11T05:38:19.465Z,1000.29
2023-01-11T05:39:19.452Z,1000.25
2023-01-11T05:40:18.460Z,1000.28
2023-01-11T05:41:19.648Z,1000.23
2023-01-11T05:42:18.450Z,1000.25
2023-01-11T05:43:20.160Z,1000.30
2023-01-11T05:44:19.658Z,1000.24
2023-01-11T05:45:18.441Z,1000.21
2023-01-11T05:46:20.155Z,1000.15
2023-01-11T05:47:19.436Z,1000.20
2023-01-11T05:48:20.147Z,1000.18
2023-01-11T05:49:19.422Z,1000.21
2023-01-11T05:50:20.159Z,1000.19
2023-01-11T05:51:20.166Z,1000.16
2023-01-11T05:52:19.663Z,1000.10
2023-01-11T05:53:20.171Z,1000.20
2023-01-11T05:54:19.402Z,1000.25
2023-01-11T05:55:20.172Z,1000.18
2023-01-11T05:56:20.166Z,1000.23
2023-01-11T05:57:19.391Z,1000.21
2023-01-11T05:58:20.175Z,1000.19
2023-01-11T05:59:20.156Z,1000.16
2023-01-11T06:00:19.673Z,1000.12
2023-01-11T06:01:20.159Z,1000.19
2023-01-11T06:02:19.490Z,1000.21
2023-01-11T06:03:20.221Z,1000.26
2023-01-11T06:04:19.358Z,1000.23
2023-01-11T06:05:20.186Z,1000.19
2023-01-11T06:06:19.360Z,1000.18
2023-01-11T06:07:19.379Z,1000.20
2023-01-11T06:08:18.345Z,1000.19
2023-01-11T06:09:18.345Z,1000.22
2023-01-11T06:10:19.676Z,1000.14
2023-01-11T06:11:19.679Z,1000.22
2023-01-11T06:12:18.330Z,1000.18
2023-01-11T06:13:19.679Z,1000.26
2023-01-11T06:14:18.324Z,1000.20
2023-01-11T06:15:18.314Z,1000.16
2023-01-11T06:16:19.740Z,1000.20
2023-01-11T06:17:19.684Z,1000.23
2023-01-11T06:18:20.171Z,1000.23
2023-01-11T06:19:20.183Z,1000.19
2023-01-11T06:20:20.175Z,1000.24
2023-01-11T06:21:19.684Z,1000.25
2023-01-11T06:22:20.170Z,1000.25
2023-01-11T06:23:20.183Z,1000.24
2023-01-11T06:24:20.185Z,1000.26
2023-01-11T06:25:20.183Z,1000.26
2023-01-11T06:26:20.186Z,1000.27
2023-01-11T06:27:20.189Z,1000.24
2023-01-11T06:28:20.179Z,1000.26
2023-01-11T06:29:20.217Z,1000.24
2023-01-11T06:30:19.260Z,1000.28
2023-01-11T06:31:20.322Z,1000.32
2023-01-11T06:32:19.247Z,1000.25
2023-01-11T06:33:18.245Z,1000.29
2023-01-11T06:34:19.704Z,1000.28
2023-01-11T06:35:19.233Z,1000.30
2023-01-11T06:36:19.701Z,1000.33
2023-01-11T06:37:19.241Z,1000.33
2023-01-11T06:38:18.231Z,1000.34
2023-01-11T06:39:18.241Z,1000.30
2023-01-11T06:40:18.227Z,1000.33
2023-01-11T06:41:19.218Z,1000.31
2023-01-11T06:42:19.698Z,1000.41
2023-01-11T06:43:19.205Z,1000.34
2023-01-11T06:44:18.204Z,1000.35
2023-01-11T06:45:18.195Z,1000.35
2023-01-11T06:46:19.352Z,1000.32
2023-01-11T06:47:18.195Z,1000.34
2023-01-11T06:48:18.179Z,1000.34
2023-01-11T06:49:19.692Z,1000.36
2023-01-11T06:50:19.693Z,1000.34
2023-01-11T06:51:19.706Z,1000.33
2023-01-11T06:52:19.699Z,1000.34
2023-01-11T06:53:18.153Z,1000.36
2023-01-11T06:54:19.696Z,1000.38
2023-01-11T06:55:18.227Z,1000.37
2023-01-11T06:56:19.727Z,1000.40
2023-01-11T06:57:18.208Z,1000.33
2023-01-11T06:58:18.205Z,1000.31
2023-01-11T06:59:19.730Z,1000.34
2023-01-11T07:00:19.709Z,1000.29
2023-01-11T07:01:20.943Z,1000.28
2023-01-11T07:02:19.703Z,1000.22
2023-01-11T07:03:18.160Z,1000.18
2023-01-11T07:04:18.119Z,1000.25
2023-01-11T07:05:19.393Z,1000.23
2023-01-11T07:06:19.730Z,1000.27
2023-01-11T07:07:19.748Z,1000.23
2023-01-11T07:08:18.096Z,1000.20
2023-01-11T07:09:18.122Z,1000.22
2023-01-11T07:10:19.722Z,1000.30
2023-01-11T07:11:18.147Z,1000.28
2023-01-11T07:12:19.727Z,1000.23
2023-01-11T07:13:18.090Z,1000.27
2023-01-11T07:14:19.745Z,1000.27
2023-01-11T07:15:19.732Z,1000.29
2023-01-11T07:16:18.107Z,1000.26
2023-01-11T07:17:18.058Z,1000.27
2023-01-11T07:18:18.054Z,1000.33
2023-01-11T07:19:19.732Z,1000.37
2023-01-11T07:20:18.048Z,1000.30
2023-01-11T07:21:19.732Z,1000.40
2023-01-11T07:22:19.719Z,1000.45
2023-01-11T07:23:19.733Z,1000.44
2023-01-11T07:24:19.723Z,1000.48
2023-01-11T07:25:19.726Z,1000.53
2023-01-11T07:26:19.749Z,1000.59
2023-01-11T07:27:19.757Z,1000.53
2023-01-11T07:28:19.753Z,1000.54
2023-01-11T07:29:19.735Z,1000.51
2023-01-11T07:30:19.725Z,1000.53
2023-01-11T07:31:19.878Z,1000.54
2023-01-11T07:32:19.783Z,1000.52
2023-01-11T07:33:19.747Z,1000.51
2023-01-11T07:34:19.739Z,1000.51
2023-01-11T07:35:19.732Z,1000.52
2023-01-11T07:36:19.740Z,1000.54
2023-01-11T07:37:29.047Z,1000.50
2023-01-11T07:38:19.746Z,1000.51
2023-01-11T07:39:19.732Z,1000.54
2023-01-11T07:40:19.744Z,1000.54
2023-01-11T07:41:19.736Z,1000.55
2023-01-11T07:42:19.735Z,1000.60
2023-01-11T07:43:19.787Z,1000.57
2023-01-11T07:45:19.921Z,1000.56
2023-01-11T07:46:19.870Z,1000.62
2023-01-11T07:47:19.764Z,1000.63
2023-01-11T07:48:19.780Z,1000.65
2023-01-11T07:49:19.740Z,1000.63
2023-01-11T07:50:17.957Z,1000.63
2023-01-11T07:51:17.993Z,1000.67
2023-01-11T07:52:20.116Z,1000.69
2023-01-11T07:53:19.916Z,1000.73
2023-01-11T07:54:19.770Z,1000.76
2023-01-11T07:55:19.752Z,1000.77
2023-01-11T07:56:19.776Z,1000.80
2023-01-11T07:57:19.807Z,1000.82
2023-01-11T07:58:19.763Z,1000.86
2023-01-11T07:59:19.836Z,1000.82
2023-01-11T08:00:19.754Z,1000.84
2023-01-11T08:01:19.760Z,1000.86
2023-01-11T08:02:19.803Z,1000.80
2023-01-11T08:03:19.960Z,1000.83
2023-01-11T08:04:19.758Z,1000.85
2023-01-11T08:05:19.769Z,1000.86
2023-01-11T08:06:19.777Z,1000.89
2023-01-11T08:07:19.751Z,1000.84
2023-01-11T08:08:19.840Z,1000.91
2023-01-11T08:09:19.763Z,1000.88
2023-01-11T08:10:19.768Z,1000.89
2023-01-11T08:11:19.763Z,1000.88
2023-01-11T08:13:19.776Z,1000.90
2023-01-11T08:14:19.774Z,1000.92
2023-01-11T08:15:21.256Z,1000.92
2023-01-11T08:16:19.813Z,1000.88
2023-01-11T08:17:19.806Z,1000.93
2023-01-11T08:18:19.835Z,1000.94
2023-01-11T08:19:19.779Z,1000.96
2023-01-11T08:20:19.775Z,1000.94
2023-01-11T08:21:17.814Z,1000.97
2023-01-11T08:22:19.814Z,1001.02
2023-01-11T08:23:19.771Z,1000.99
2023-01-11T08:24:19.330Z,1000.99
2023-01-11T08:25:18.848Z,1001.02
2023-01-11T08:26:18.780Z,1001.05
2023-01-11T08:27:19.619Z,1000.98
2023-01-11T08:29:21.029Z,1001.02
2023-01-11T08:30:21.751Z,1001.00
2023-01-11T08:31:17.949Z,1001.06
2023-01-11T08:32:18.052Z,1001.04
2023-01-11T08:33:17.866Z,1001.03
2023-01-11T08:34:19.323Z,1001.08
2023-01-11T08:35:17.764Z,1001.08
2023-01-11T08:36:17.869Z,1001.11
2023-01-11T08:37:19.442Z,1001.05
2023-01-11T08:38:17.857Z,1001.06
2023-01-11T08:39:17.872Z,1001.05
2023-01-11T08:40:20.096Z,1001.05
2023-01-11T08:41:18.047Z,1001.04
2023-01-11T08:42:19.519Z,1001.04
2023-01-11T08:43:17.889Z,1001.04
2023-01-11T08:44:25.445Z,1001.01
2023-01-11T08:45:17.817Z,1001.07
2023-01-11T08:46:17.896Z,1001.14
2023-01-11T08:47:17.747Z,1001.13
2023-01-11T08:48:19.358Z,1001.19
2023-01-11T08:49:17.768Z,1001.20
2023-01-11T08:50:17.712Z,1001.19
2023-01-11T08:51:20.252Z,1001.17
2023-01-11T08:52:17.834Z,1001.16
2023-01-11T08:53:17.756Z,1001.19
2023-01-11T08:54:17.723Z,1001.14
2023-01-11T08:55:17.828Z,1001.09
2023-01-11T08:56:18.933Z,1001.04
2023-01-11T08:57:17.731Z,1000.98
2023-01-11T08:58:17.952Z,1000.93
2023-01-11T08:59:19.684Z,1000.95
2023-01-11T09:00:19.352Z,1000.99
2023-01-11T09:01:19.391Z,1000.99
2023-01-11T09:02:19.340Z,1001.06
2023-01-11T09:03:19.369Z,1001.06
2023-01-11T09:04:25.150Z,1001.05
2023-01-11T09:05:19.298Z,1001.10
2023-01-11T09:06:19.317Z,1001.09
2023-01-11T09:07:19.321Z,1001.12
2023-01-11T09:08:19.312Z,1001.10
2023-01-11T09:09:19.310Z,1001.12
2023-01-11T09:10:19.322Z,1001.11
2023-01-11T09:11:19.313Z,1001.13
2023-01-11T09:12:19.311Z,1001.21
2023-01-11T09:13:19.328Z,1001.24
2023-01-11T09:14:19.328Z,1001.26
2023-01-11T09:15:19.339Z,1001.23
2023-01-11T09:16:19.368Z,1001.30
2023-01-11T09:17:19.323Z,1001.38
2023-01-11T09:18:19.320Z,1001.42
2023-01-11T09:19:18.962Z,1001.41
2023-01-11T09:21:19.326Z,1001.47
2023-01-11T09:22:18.871Z,1001.45
2023-01-11T09:23:17.572Z,1001.53
2023-01-11T09:24:17.557Z,1001.54
2023-01-11T09:25:19.334Z,1001.61
2023-01-11T09:26:19.363Z,1001.66
2023-01-11T09:27:17.612Z,1001.63
2023-01-11T09:28:19.325Z,1001.65
2023-01-11T09:30:19.324Z,1001.65
2023-01-11T09:31:19.402Z,1001.66
2023-01-11T09:32:19.345Z,1001.64
2023-01-11T09:33:19.352Z,1001.61
2023-01-11T09:34:17.519Z,1001.65
2023-01-11T09:35:17.544Z,1001.70
2023-01-11T09:36:18.860Z,1001.69
2023-01-11T09:37:19.338Z,1001.72
2023-01-11T09:38:19.334Z,1001.73
2023-01-11T09:39:19.332Z,1001.76
2023-01-11T09:40:19.362Z,1001.76
2023-01-11T09:41:19.385Z,1001.80
2023-01-11T09:42:19.377Z,1001.80
2023-01-11T09:43:19.338Z,1001.88
2023-01-11T09:44:19.338Z,1001.95
2023-01-11T09:45:17.501Z,1001.94
2023-01-11T09:46:19.343Z,1001.97
2023-01-11T09:47:19.367Z,1001.93
2023-01-11T09:48:17.527Z,1001.94
2023-01-11T09:49:17.463Z,1001.93
2023-01-11T09:50:17.487Z,1001.91
2023-01-11T09:51:17.467Z,1001.93
2023-01-11T09:52:19.365Z,1001.93
2023-01-11T09:53:19.358Z,1001.90
2023-01-11T09:54:17.444Z,1001.88
2023-01-11T09:55:17.433Z,1001.84
2023-01-11T09:56:17.436Z,1001.86
2023-01-11T09:57:17.428Z,1001.87
2023-01-11T09:58:19.388Z,1001.89
2023-01-11T09:59:19.361Z,1001.94
2023-01-11T10:00:19.352Z,1001.93
2023-01-11T10:01:19.419Z,1001.97
2023-01-11T10:18:29.331Z,1001.83
2023-01-11T10:18:30.321Z,1001.82
2023-01-11T10:18:33.758Z,1001.87
2023-01-11T10:18:37.855Z,1001.92
2023-01-11T10:18:53.775Z,1001.87
2023-01-11T10:19:39.748Z,1001.87
2023-01-11T10:20:31.852Z,1001.93
2023-01-11T10:21:33.373Z,1001.94
2023-01-11T10:22:33.372Z,1002.03
2023-01-11T10:23:33.411Z,1002.03
2023-01-11T10:24:33.371Z,1002.12
2023-01-11T10:25:33.376Z,1002.16
2023-01-11T10:26:33.525Z,1002.15
2023-01-11T10:27:31.865Z,1002.21
2023-01-11T10:28:33.562Z,1002.23
2023-01-11T10:29:31.941Z,1002.20
2023-01-11T10:30:31.916Z,1002.20
2023-01-11T10:31:31.891Z,1002.19
2023-01-11T10:32:31.769Z,1002.20
2023-01-11T10:33:32.935Z,1002.13
2023-01-11T10:34:32.154Z,1002.10
2023-01-11T10:35:31.884Z,1002.10
2023-01-11T10:36:33.484Z,1002.11
2023-01-11T10:37:32.036Z,1002.09
2023-01-11T10:38:31.731Z,1002.09
2023-01-11T10:39:31.767Z,1002.10
2023-01-11T10:40:38.407Z,1002.05
2023-01-11T10:41:33.420Z,1002.02
2023-01-11T10:42:31.714Z,1002.01
2023-01-11T10:43:32.926Z,1002.05
2023-01-11T10:44:33.398Z,1002.08
2023-01-11T10:45:31.998Z,1002.10
2023-01-11T10:46:33.444Z,1002.13
2023-01-11T10:47:31.710Z,1002.14
2023-01-11T10:48:32.003Z,1002.13
2023-01-11T10:49:35.524Z,1002.16
2023-01-11T10:50:31.686Z,1002.11
2023-01-11T10:51:33.400Z,1002.10
2023-01-11T10:52:33.419Z,1002.07
2023-01-11T10:53:31.673Z,1002.10
2023-01-11T10:54:33.410Z,1002.07
2023-01-11T10:56:33.403Z,1002.15
2023-01-11T10:57:33.412Z,1002.09
2023-01-11T10:58:33.408Z,1002.12
2023-01-11T10:59:33.416Z,1002.11
2023-01-11T11:00:33.493Z,1002.14
2023-01-11T11:01:33.402Z,1002.03
2023-01-11T11:02:33.462Z,1002.07
2023-01-11T11:03:33.410Z,1002.10
2023-01-11T11:04:33.416Z,1002.10
2023-01-11T11:05:33.413Z,1002.13
2023-01-11T11:06:31.639Z,1002.16
2023-01-11T11:07:31.642Z,1002.16
2023-01-11T11:08:31.688Z,1002.16
2023-01-11T11:09:33.451Z,1002.23
2023-01-11T11:10:31.643Z,1002.24
2023-01-11T11:11:31.658Z,1002.26
2023-01-11T11:12:32.608Z,1002.32
2023-01-11T11:13:31.615Z,1002.37
2023-01-11T11:14:33.519Z,1002.35
2023-01-11T11:15:33.420Z,1002.36
2023-01-11T11:16:33.513Z,1002.38
2023-01-11T11:17:33.419Z,1002.27
2023-01-11T11:18:31.608Z,1002.32
2023-01-11T11:19:31.595Z,1002.33
2023-01-11T11:20:33.433Z,1002.30
2023-01-11T11:21:33.445Z,1002.28
2023-01-11T11:22:33.421Z,1002.33
2023-01-11T11:23:31.574Z,1002.27
2023-01-11T11:24:33.445Z,1002.30
2023-01-11T11:25:33.433Z,1002.30
2023-01-11T11:26:33.447Z,1002.30
2023-01-11T11:27:32.571Z,1002.32
2023-01-11T11:28:31.566Z,1002.33
2023-01-11T11:29:33.439Z,1002.29
2023-01-11T11:30:31.551Z,1002.28
2023-01-11T11:31:31.600Z,1002.28
2023-01-11T11:32:36.372Z,1002.28
2023-01-11T11:33:33.450Z,1002.33
2023-01-11T11:34:31.553Z,1002.34
2023-01-11T11:35:31.590Z,1002.40
2023-01-11T11:36:31.530Z,1002.36
2023-01-11T11:37:31.520Z,1002.40
2023-01-11T11:38:33.463Z,1002.40
2023-01-11T11:39:31.512Z,1002.39
2023-01-11T11:40:31.559Z,1002.39
2023-01-11T11:41:31.507Z,1002.41
2023-01-11T11:42:31.769Z,1002.45
2023-01-11T11:43:33.449Z,1002.50
2023-01-11T11:44:32.514Z,1002.45
2023-01-11T11:45:31.535Z,1002.50
2023-01-11T11:46:31.511Z,1002.43
2023-01-11T11:47:33.442Z,1002.46
2023-01-11T11:48:33.454Z,1002.49
2023-01-11T11:49:31.521Z,1002.54
2023-01-11T11:50:45.411Z,1002.55
2023-01-11T11:51:31.464Z,1002.60
2023-01-11T11:52:33.456Z,1002.57
2023-01-11T11:53:33.485Z,1002.57
2023-01-11T11:54:31.460Z,1002.50
2023-01-11T11:55:31.776Z,1002.46
2023-01-11T11:56:31.459Z,1002.48
2023-01-11T11:57:31.460Z,1002.52
2023-01-11T11:58:32.961Z,1002.55
2023-01-11T11:59:31.454Z,1002.53
2023-01-11T12:00:31.445Z,1002.55
2023-01-11T12:01:32.608Z,1002.51
2023-01-11T12:02:33.047Z,1002.57
2023-01-11T12:03:33.007Z,1002.59
2023-01-11T12:04:32.995Z,1002.56
2023-01-11T12:05:31.423Z,1002.57
2023-01-11T12:06:31.506Z,1002.60
2023-01-11T12:07:31.550Z,1002.62
2023-01-11T12:08:32.976Z,1002.65
2023-01-11T12:09:31.480Z,1002.65
2023-01-11T12:11:31.405Z,1002.62
2023-01-11T12:12:31.404Z,1002.58
2023-01-11T12:13:37.535Z,1002.60
2023-01-11T12:14:31.468Z,1002.58
2023-01-11T12:15:31.450Z,1002.64
2023-01-11T12:16:32.219Z,1002.64
2023-01-11T12:17:31.611Z,1002.66
2023-01-11T12:18:32.139Z,1002.71
2023-01-11T12:19:31.379Z,1002.71
2023-01-11T12:20:33.039Z,1002.69
2023-01-11T12:21:32.994Z,1002.70
2023-01-11T12:22:33.075Z,1002.74
2023-01-11T12:23:32.984Z,1002.72
2023-01-11T12:24:32.973Z,1002.74
2023-01-11T12:25:32.985Z,1002.69
2023-01-11T12:26:33.023Z,1002.71
2023-01-11T12:27:32.999Z,1002.74
2023-01-11T12:28:31.345Z,1002.70
2023-01-11T12:29:31.356Z,1002.70
2023-01-11T12:30:31.371Z,1002.69
2023-01-11T12:31:32.994Z,1002.70
2023-01-11T12:32:31.342Z,1002.72
2023-01-11T12:33:31.342Z,1002.74
2023-01-11T12:34:33.005Z,1002.71
2023-01-11T12:35:31.336Z,1002.68
2023-01-11T12:36:31.328Z,1002.67
2023-01-11T12:37:31.325Z,1002.67
2023-01-11T12:38:31.363Z,1002.65
2023-01-11T12:39:31.327Z,1002.58
2023-01-11T12:40:33.002Z,1002.64
2023-01-11T12:41:32.996Z,1002.69
2023-01-11T12:42:31.325Z,1002.62
2023-01-11T12:43:31.315Z,1002.63
2023-01-11T12:44:31.302Z,1002.63
2023-01-11T12:45:33.003Z,1002.69
2023-01-11T12:46:31.300Z,1002.72
2023-01-11T12:47:33.009Z,1002.71
2023-01-11T12:48:31.291Z,1002.73
2023-01-11T12:49:33.014Z,1002.74
2023-01-11T12:50:32.308Z,1002.77
2023-01-11T12:51:33.023Z,1002.78
2023-01-11T12:52:33.014Z,1002.76
2023-01-11T12:53:33.014Z,1002.80
2023-01-11T12:54:33.003Z,1002.80
2023-01-11T12:55:33.032Z,1002.83
2023-01-11T12:56:33.011Z,1002.81
2023-01-11T12:57:33.024Z,1002.85
2023-01-11T12:58:33.041Z,1002.84
2023-01-11T12:59:32.301Z,1002.83
2023-01-11T13:00:33.001Z,1002.84
2023-01-11T13:01:33.123Z,1002.83
2023-01-11T13:02:33.106Z,1002.87
2023-01-11T13:03:33.042Z,1002.87
2023-01-11T13:04:33.007Z,1002.85
2023-01-11T13:05:33.007Z,1002.82
2023-01-11T13:06:33.016Z,1002.86
2023-01-11T13:07:33.033Z,1002.83
2023-01-11T13:08:33.029Z,1002.88
2023-01-11T13:09:31.279Z,1002.81
2023-01-11T13:10:31.266Z,1002.85
2023-01-11T13:11:31.292Z,1002.87
2023-01-11T13:12:31.273Z,1002.81
2023-01-11T13:13:33.042Z,1002.84
2023-01-11T13:14:31.335Z,1002.85
2023-01-11T13:15:34.259Z,1002.82
2023-01-11T13:16:31.298Z,1002.84
2023-01-11T13:17:33.027Z,1002.81
2023-01-11T13:18:33.052Z,1002.79
2023-01-11T13:19:31.261Z,1002.87
2023-01-11T13:20:40.469Z,1002.87
2023-01-11T13:21:31.262Z,1002.88
2023-01-11T13:22:33.113Z,1002.89
2023-01-11T13:23:31.265Z,1002.91
2023-01-11T13:24:33.057Z,1002.94
2023-01-11T13:25:31.346Z,1002.96
2023-01-11T13:26:33.028Z,1002.96
2023-01-11T13:27:33.032Z,1003.06
2023-01-11T13:28:33.045Z,1003.03
2023-01-11T13:29:33.039Z,1002.99
2023-01-11T13:30:33.075Z,1003.08
2023-01-11T13:31:33.062Z,1003.09
2023-01-11T13:32:33.040Z,1003.09
2023-01-11T13:33:33.050Z,1003.11
2023-01-11T13:34:33.065Z,1003.17
2023-01-11T13:35:33.041Z,1003.15
2023-01-11T13:36:33.051Z,1003.15
2023-01-11T13:37:33.054Z,1003.16
2023-01-11T13:38:34.681Z,1003.16
2023-01-11T13:39:33.053Z,1003.20
2023-01-11T13:40:33.077Z,1003.11
2023-01-11T13:41:33.078Z,1003.12
2023-01-11T13:42:33.046Z,1003.15
2023-01-11T13:43:33.062Z,1003.18
2023-01-11T13:44:33.895Z,1003.21
2023-01-11T13:45:33.052Z,1003.21
2023-01-11T13:46:32.304Z,1003.30
2023-01-11T13:47:33.092Z,1003.27
2023-01-11T13:48:33.065Z,1003.32
2023-01-11T13:49:33.058Z,1003.35
2023-01-11T13:50:33.063Z,1003.33
2023-01-11T13:51:33.071Z,1003.39
2023-01-11T13:52:33.053Z,1003.39
2023-01-11T13:53:33.086Z,1003.39
2023-01-11T13:54:33.059Z,1003.41
2023-01-11T13:55:33.056Z,1003.44
2023-01-11T13:56:33.092Z,1003.46
2023-01-11T13:57:33.105Z,1003.48
2023-01-11T13:58:33.374Z,1003.50
2023-01-11T13:59:33.083Z,1003.49
2023-01-11T14:00:33.063Z,1003.55
2023-01-11T14:01:33.153Z,1003.57
2023-01-11T14:02:33.080Z,1003.58
2023-01-11T14:03:33.107Z,1003.62
2023-01-11T14:04:33.076Z,1003.62
2023-01-11T14:05:33.087Z,1003.62
2023-01-11T14:06:31.224Z,1003.62
2023-01-11T14:07:31.234Z,1003.63
2023-01-11T14:08:31.225Z,1003.61
2023-01-11T14:09:32.595Z,1003.61
2023-01-11T14:10:31.215Z,1003.62
2023-01-11T14:11:31.216Z,1003.71
2023-01-11T14:12:31.217Z,1003.69
2023-01-11T14:13:31.234Z,1003.72
2023-01-11T14:14:33.117Z,1003.75
2023-01-11T14:15:31.286Z,1003.77
2023-01-11T14:16:33.101Z,1003.77
2023-01-11T14:17:31.207Z,1003.79
2023-01-11T14:18:32.596Z,1003.77
2023-01-11T14:19:33.087Z,1003.81
2023-01-11T14:20:33.093Z,1003.79
2023-01-11T14:21:33.080Z,1003.83
2023-01-11T14:22:33.106Z,1003.81
2023-01-11T14:23:33.088Z,1003.80
2023-01-11T14:24:33.088Z,1003.89
2023-01-11T14:25:33.103Z,1003.84
2023-01-11T14:26:33.085Z,1003.90
2023-01-11T14:27:33.115Z,1003.92
2023-01-11T14:28:33.101Z,1003.95
2023-01-11T14:29:33.093Z,1003.92
2023-01-11T14:30:33.092Z,1003.93
2023-01-11T14:31:33.129Z,1003.99
2023-01-11T14:32:33.099Z,1003.93
2023-01-11T14:33:33.137Z,1003.99
2023-01-11T14:34:33.091Z,1004.00
2023-01-11T14:35:33.119Z,1004.01
2023-01-11T14:36:33.114Z,1003.98
2023-01-11T14:37:33.102Z,1004.02
2023-01-11T14:38:33.116Z,1003.99
2023-01-11T14:39:31.184Z,1003.99
2023-01-11T14:40:31.172Z,1003.99
2023-01-11T14:41:33.143Z,1004.06
2023-01-11T14:42:35.102Z,1004.03
2023-01-11T14:43:31.151Z,1004.00
2023-01-11T14:44:33.139Z,1004.03
2023-01-11T14:45:31.179Z,1004.02
2023-01-11T14:46:33.211Z,1004.05
2023-01-11T14:47:31.169Z,1004.04
2023-01-11T14:48:31.156Z,1004.05
2023-01-11T14:49:31.297Z,1004.06
2023-01-11T14:50:31.131Z,1004.02
2023-01-11T14:51:33.918Z,1004.02
2023-01-11T14:52:39.628Z,1004.02
2023-01-11T14:53:32.141Z,1003.99
2023-01-11T14:54:32.650Z,1003.96
2023-01-11T14:55:31.118Z,1003.95
2023-01-11T14:56:32.612Z,1003.91
2023-01-11T14:57:32.625Z,1003.89
2023-01-11T14:58:32.612Z,1003.86
2023-01-11T14:59:32.632Z,1003.89
2023-01-11T15:00:32.625Z,1003.89
2023-01-11T15:01:32.729Z,1003.89
2023-01-11T15:02:32.624Z,1003.89
2023-01-11T15:03:32.627Z,1003.87
2023-01-11T15:04:32.712Z,1003.86
2023-01-11T15:05:32.628Z,1003.84
2023-01-11T15:06:32.626Z,1003.85
2023-01-11T15:07:32.639Z,1003.80
2023-01-11T15:08:32.639Z,1003.80
2023-01-11T15:09:32.623Z,1003.79
2023-01-11T15:10:32.625Z,1003.85
2023-01-11T15:11:32.634Z,1003.93
2023-01-11T15:12:32.625Z,1003.88
2023-01-11T15:13:33.876Z,1003.90
2023-01-11T15:14:32.665Z,1003.91
2023-01-11T15:15:32.647Z,1003.90
2023-01-11T15:16:32.696Z,1003.90
2023-01-11T15:17:32.630Z,1003.93
2023-01-11T15:18:31.055Z,1003.91
2023-01-11T15:19:33.619Z,1003.96
2023-01-11T15:20:32.147Z,1003.97
2023-01-11T15:21:32.034Z,1003.95
2023-01-11T15:22:32.642Z,1003.98
2023-01-11T15:23:32.664Z,1003.97
2023-01-11T15:24:32.035Z,1004.02
2023-01-11T15:25:33.900Z,1004.01
2023-01-11T15:26:32.650Z,1004.00
2023-01-11T15:27:32.659Z,1004.06
2023-01-11T15:28:32.156Z,1004.01
2023-01-11T15:29:32.645Z,1004.00
2023-01-11T15:30:32.695Z,1004.01
2023-01-11T15:31:34.356Z,1003.96
2023-01-11T15:32:32.681Z,1003.97
2023-01-11T15:33:32.676Z,1003.94
2023-01-11T15:34:32.651Z,1003.93
2023-01-11T15:35:32.681Z,1004.00
2023-01-11T15:36:32.665Z,1003.97
2023-01-11T15:37:32.660Z,1004.04
2023-01-11T15:38:32.679Z,1003.99
2023-01-11T15:39:32.164Z,1003.98
2023-01-11T15:40:30.974Z,1003.99
2023-01-11T15:41:32.167Z,1004.03
2023-01-11T15:42:30.985Z,1004.02
2023-01-11T15:43:30.957Z,1004.02
2023-01-11T15:44:30.991Z,1004.01
2023-01-11T15:45:32.179Z,1004.03
2023-01-11T15:46:32.213Z,1004.02
2023-01-11T15:47:30.967Z,1003.99
2023-01-11T15:48:31.053Z,1004.03
2023-01-11T15:49:30.939Z,1004.00
2023-01-11T15:50:30.940Z,1004.02
2023-01-11T15:51:32.177Z,1004.02
2023-01-11T15:52:30.924Z,1004.04
2023-01-11T15:53:32.667Z,1004.01
2023-01-11T15:54:32.666Z,1004.07
2023-01-11T15:55:32.708Z,1004.06
2023-01-11T15:56:31.909Z,1004.06
2023-01-11T15:57:32.696Z,1004.11
2023-01-11T15:58:32.673Z,1004.14
2023-01-11T15:59:32.672Z,1004.11
2023-01-11T16:00:32.732Z,1004.13
2023-01-11T16:12:49.847Z,1004.22
2023-01-11T16:13:50.323Z,1004.20
2023-01-11T16:14:50.324Z,1004.22
2023-01-11T16:15:50.315Z,1004.24
2023-01-11T16:16:50.328Z,1004.29
2023-01-11T16:17:50.319Z,1004.25
2023-01-11T16:18:50.335Z,1004.24
2023-01-11T16:19:50.323Z,1004.28
2023-01-11T16:20:50.320Z,1004.25
2023-01-11T16:21:50.324Z,1004.23
2023-01-11T16:22:50.364Z,1004.15
2023-01-11T16:23:49.736Z,1004.19
2023-01-11T16:24:48.723Z,1004.15
2023-01-11T16:25:49.854Z,1004.19
2023-01-11T16:26:48.745Z,1004.20
2023-01-11T16:27:49.091Z,1004.22
2023-01-11T16:28:48.730Z,1004.23
2023-01-11T16:29:48.705Z,1004.29
2023-01-11T16:30:49.840Z,1004.30
2023-01-11T16:31:49.867Z,1004.35
2023-01-11T16:32:48.688Z,1004.33
2023-01-11T16:33:49.937Z,1004.35
2023-01-11T16:34:49.673Z,1004.37